createdAt,value
2022-12-23T00:03:33.142Z,4.77
2022-12-23T00:07:15.169Z,3.50
2022-12-23T00:10:59.537Z,2.88
2022-12-23T00:15:01.099Z,2.20
2022-12-23T00:18:44.893Z,2.53
2022-12-23T00:22:46.603Z,2.55
2022-12-23T00:26:29.441Z,3.63
2022-12-23T00:30:14.552Z,3.42
2022-12-23T00:33:56.685Z,3.35
2022-12-23T00:37:38.942Z,2.38
2022-12-23T00:41:39.091Z,3.25
2022-12-23T00:45:22.199Z,2.28
2022-12-23T00:49:29.028Z,4.70
2022-12-23T00:53:20.575Z,4.85
2022-12-23T00:57:03.195Z,4.82
2022-12-23T01:01:04.792Z,4.07
2022-12-23T01:05:05.513Z,4.22
2022-12-23T01:08:47.979Z,4.47
2022-12-23T01:12:29.756Z,4.87
2022-12-23T01:16:17.294Z,4.35
2022-12-23T01:19:59.581Z,6.32
2022-12-23T01:23:44.485Z,4.05
2022-12-23T01:27:26.303Z,3.95
2022-12-23T01:31:10.730Z,3.38
2022-12-23T01:34:52.444Z,4.80
2022-12-23T01:38:37.416Z,4.07
2022-12-23T01:42:40.276Z,3.65
2022-12-23T01:46:22.441Z,3.05
2022-12-23T01:50:30.752Z,5.03
2022-12-23T01:54:12.471Z,2.75
2022-12-23T01:57:57.583Z,3.08
2022-12-23T02:01:58.056Z,3.28
2022-12-23T02:05:40.908Z,3.53
2022-12-23T02:09:27.204Z,2.95
2022-12-23T02:13:16.203Z,5.30
2022-12-23T02:17:25.190Z,3.47
2022-12-23T02:21:12.711Z,5.45
2022-12-23T02:25:04.201Z,2.58
2022-12-23T02:29:07.022Z,2.65
2022-12-23T02:33:07.760Z,2.90
2022-12-23T02:37:17.468Z,3.38
2022-12-23T02:41:10.107Z,2.55
2022-12-23T02:45:21.675Z,2.20
2022-12-23T02:49:15.196Z,2.80
2022-12-23T02:56:45.263Z,3.78
2022-12-23T03:00:27.257Z,3.35
2022-12-23T03:04:09.224Z,3.95
2022-12-23T03:07:54.610Z,2.95
2022-12-23T03:12:02.735Z,2.33
2022-12-23T03:15:49.035Z,2.20
2022-12-23T03:19:43.727Z,5.35
2022-12-23T03:23:55.915Z,3.50
2022-12-23T03:27:45.222Z,2.20
2022-12-23T03:31:30.020Z,2.58
2022-12-23T03:35:17.660Z,3.22
2022-12-23T03:39:01.998Z,5.25
2022-12-23T03:42:56.918Z,2.38
2022-12-23T03:46:43.677Z,5.35
2022-12-23T03:50:26.089Z,5.55
2022-12-23T03:54:12.135Z,2.53
2022-12-23T03:58:04.681Z,2.72
2022-12-23T04:02:08.144Z,2.53
2022-12-23T04:05:57.379Z,2.20
2022-12-23T04:09:39.604Z,2.30
2022-12-23T04:13:21.307Z,2.63
2022-12-23T04:17:03.060Z,2.80
2022-12-23T04:20:44.845Z,2.78
2022-12-23T04:24:26.538Z,2.85
2022-12-23T04:28:08.255Z,3.17
2022-12-23T04:31:50.005Z,3.40
2022-12-23T04:35:31.775Z,3.40
2022-12-23T04:39:13.600Z,3.63
2022-12-23T04:42:55.388Z,3.30
2022-12-23T04:46:37.247Z,3.10
2022-12-23T04:50:19.115Z,2.40
2022-12-23T04:54:00.896Z,3.30
2022-12-23T04:57:42.692Z,2.85
2022-12-23T05:01:24.440Z,3.28
2022-12-23T05:05:06.532Z,2.63
2022-12-23T05:08:48.245Z,3.35
2022-12-23T05:12:31.116Z,3.67
2022-12-23T05:16:13.014Z,2.90
2022-12-23T05:19:54.768Z,2.65
2022-12-23T05:23:36.529Z,4.82
2022-12-23T05:27:18.316Z,3.13
2022-12-23T05:31:00.833Z,5.60
2022-12-23T05:34:42.715Z,2.83
2022-12-23T05:38:25.145Z,5.10
2022-12-23T05:42:06.873Z,3.37
2022-12-23T05:45:55.019Z,3.00
2022-12-23T05:49:37.411Z,3.15
2022-12-23T05:53:20.242Z,3.58
2022-12-23T05:57:10.403Z,3.17
2022-12-23T06:00:52.758Z,3.05
2022-12-23T06:04:34.839Z,3.63
2022-12-23T06:08:16.597Z,3.85
2022-12-23T06:11:58.475Z,3.95
2022-12-23T06:15:40.337Z,3.25
2022-12-23T06:19:22.047Z,4.55
2022-12-23T06:23:11.504Z,3.38
2022-12-23T06:26:57.200Z,3.22
2022-12-23T06:30:42.508Z,4.35
2022-12-23T06:34:24.263Z,5.13
2022-12-23T06:38:10.419Z,2.70
2022-12-23T06:41:53.985Z,2.78
2022-12-23T06:45:35.695Z,2.72
2022-12-23T06:49:17.626Z,2.65
2022-12-23T06:52:59.450Z,2.72
2022-12-23T06:56:41.153Z,2.30
2022-12-23T07:00:23.052Z,2.65
2022-12-23T07:04:04.869Z,3.05
2022-12-23T07:07:46.621Z,2.38
2022-12-23T07:11:28.353Z,2.60
2022-12-23T07:15:11.648Z,2.78
2022-12-23T07:18:53.587Z,3.38
2022-12-23T07:22:35.289Z,2.22
2022-12-23T07:26:18.175Z,2.00
2022-12-23T07:29:59.873Z,2.20
2022-12-23T07:33:41.881Z,1.85
2022-12-23T07:37:23.637Z,1.40
2022-12-23T07:41:05.535Z,1.30
2022-12-23T07:44:47.581Z,2.08
2022-12-23T07:48:29.289Z,1.30
2022-12-23T07:52:11.038Z,3.40
2022-12-23T07:55:56.388Z,1.55
2022-12-23T07:59:38.593Z,1.30
2022-12-23T08:03:20.351Z,1.52
2022-12-23T08:07:02.135Z,2.05
2022-12-23T08:10:48.326Z,4.65
2022-12-23T08:14:30.472Z,2.70
2022-12-23T08:18:12.249Z,3.83
2022-12-23T08:21:53.986Z,4.10
2022-12-23T08:25:35.701Z,2.30
2022-12-23T08:29:17.533Z,3.08
2022-12-23T08:32:59.411Z,4.45
2022-12-23T08:36:41.237Z,4.00
2022-12-23T08:40:22.966Z,6.47
2022-12-23T08:44:04.856Z,5.75
2022-12-23T08:47:46.681Z,4.57
2022-12-23T08:51:28.776Z,4.22
2022-12-23T08:55:10.496Z,4.20
2022-12-23T08:58:53.888Z,4.80
2022-12-23T09:06:28.324Z,3.92
2022-12-23T09:13:53.087Z,8.88
2022-12-23T09:17:35.152Z,4.68
2022-12-23T09:21:20.417Z,8.57
2022-12-23T09:25:05.232Z,6.35
2022-12-23T09:28:47.416Z,7.00
2022-12-23T09:32:29.931Z,7.40
2022-12-23T09:36:11.667Z,7.47
2022-12-23T09:39:53.687Z,7.05
2022-12-23T09:43:59.781Z,6.30
2022-12-23T09:47:42.759Z,7.13
2022-12-23T09:51:24.555Z,5.95
2022-12-23T09:55:11.188Z,9.68
2022-12-23T09:59:25.295Z,8.80
2022-12-23T10:03:19.846Z,8.20
2022-12-23T10:07:33.805Z,7.15
2022-12-23T10:15:03.260Z,8.68
2022-12-23T10:18:57.537Z,7.32
2022-12-23T10:22:43.961Z,12.40
2022-12-23T10:26:45.976Z,11.93
2022-12-23T10:30:57.241Z,10.30
2022-12-23T10:34:46.807Z,5.90
2022-12-23T10:38:28.470Z,9.25
2022-12-23T10:42:37.132Z,9.52
2022-12-23T10:46:21.940Z,13.07
2022-12-23T10:50:25.356Z,14.18
2022-12-23T10:54:14.380Z,10.75
2022-12-23T10:58:03.530Z,12.30
2022-12-23T11:01:52.738Z,10.63
2022-12-23T11:05:35.289Z,16.40
2022-12-23T11:09:21.877Z,19.47
2022-12-23T11:13:03.687Z,12.50
2022-12-23T11:16:46.943Z,14.30
2022-12-23T11:20:30.208Z,12.95
2022-12-23T11:24:17.037Z,12.98
2022-12-23T11:28:10.932Z,19.08
2022-12-23T11:31:53.093Z,14.15
2022-12-23T11:35:37.530Z,18.33
2022-12-23T11:39:26.893Z,16.05
2022-12-23T11:43:16.252Z,14.15
2022-12-23T11:46:58.336Z,19.83
2022-12-23T11:50:40.864Z,15.13
2022-12-23T11:54:23.118Z,18.10
2022-12-23T11:58:05.115Z,10.63
2022-12-23T12:01:49.025Z,17.67
2022-12-23T12:05:40.714Z,14.50
2022-12-23T12:09:24.820Z,14.18
2022-12-23T12:13:29.440Z,14.43
2022-12-23T12:17:16.354Z,12.43
2022-12-23T12:21:07.037Z,12.57
2022-12-23T12:24:53.875Z,13.73
2022-12-23T12:28:42.931Z,14.80
2022-12-23T12:32:35.345Z,19.48
2022-12-23T12:36:46.071Z,12.27
2022-12-23T12:40:38.477Z,11.75
2022-12-23T12:44:59.932Z,12.35
2022-12-23T12:48:59.715Z,9.13
2022-12-23T12:52:42.961Z,15.30
2022-12-23T13:00:21.353Z,8.82
2022-12-23T13:04:25.637Z,6.30
2022-12-23T13:08:19.115Z,8.05
2022-12-23T13:16:33.599Z,5.70
2022-12-23T13:20:33.716Z,6.70
2022-12-23T13:24:21.374Z,8.15
2022-12-23T13:28:24.398Z,7.00
2022-12-23T13:32:37.502Z,14.13
2022-12-23T13:36:35.868Z,5.43
2022-12-23T13:40:44.282Z,6.65
2022-12-23T13:44:27.027Z,9.43
2022-12-23T13:48:11.566Z,9.35
2022-12-23T13:52:00.170Z,11.52
2022-12-23T13:56:00.765Z,8.85
2022-12-23T13:59:58.483Z,9.98
2022-12-23T14:03:47.657Z,7.43
2022-12-23T14:07:33.273Z,7.47
2022-12-23T14:11:32.079Z,10.38
2022-12-23T14:15:26.130Z,10.18
2022-12-23T14:19:35.491Z,7.15
2022-12-23T14:23:30.588Z,9.05
2022-12-23T14:27:31.638Z,5.60
2022-12-23T14:31:42.559Z,14.00
2022-12-23T14:35:38.595Z,10.50
2022-12-23T14:39:31.917Z,9.40
2022-12-23T14:43:23.087Z,13.75
2022-12-23T14:47:35.645Z,15.52
2022-12-23T14:51:24.744Z,16.55
2022-12-23T14:55:30.932Z,18.30
2022-12-23T14:59:24.111Z,15.35
2022-12-23T15:03:06.026Z,13.88
2022-12-23T15:06:54.435Z,14.68
2022-12-23T15:10:38.072Z,18.50
2022-12-23T15:14:31.522Z,17.33
2022-12-23T15:18:13.590Z,16.85
2022-12-23T15:22:17.921Z,16.20
2022-12-23T15:26:03.080Z,16.33
2022-12-23T15:29:49.207Z,20.63
2022-12-23T15:37:37.230Z,15.18
2022-12-23T15:41:18.967Z,14.65
2022-12-23T15:45:00.822Z,15.73
2022-12-23T15:48:43.167Z,17.45
2022-12-23T15:52:25.575Z,20.25
2022-12-23T15:56:10.519Z,20.23
2022-12-23T15:59:52.450Z,29.90
2022-12-23T16:03:38.958Z,17.60
2022-12-23T16:07:47.191Z,13.48
2022-12-23T16:11:58.708Z,20.88
2022-12-23T16:15:40.458Z,19.15
2022-12-23T16:20:14.767Z,21.17
2022-12-23T16:27:46.197Z,22.48
2022-12-23T16:31:28.210Z,23.15
2022-12-23T16:35:13.016Z,17.98
2022-12-23T16:39:06.864Z,20.30
2022-12-23T16:42:48.634Z,18.42
2022-12-23T16:46:39.386Z,20.02
2022-12-23T16:50:21.255Z,23.25
2022-12-23T16:54:02.982Z,22.30
2022-12-23T16:57:45.162Z,20.77
2022-12-23T17:01:43.157Z,17.08
2022-12-23T17:05:25.001Z,22.65
2022-12-23T17:09:07.977Z,17.25
2022-12-23T17:12:50.306Z,19.25
2022-12-23T17:16:32.563Z,29.27
2022-12-23T17:20:14.969Z,19.33
2022-12-23T17:24:07.376Z,18.87
2022-12-23T17:27:50.180Z,20.33
2022-12-23T17:31:33.991Z,26.30
2022-12-23T17:35:15.930Z,24.85
2022-12-23T17:38:57.750Z,20.73
2022-12-23T17:42:39.976Z,26.35
2022-12-23T17:46:21.978Z,24.38
2022-12-23T17:50:03.914Z,17.10
2022-12-23T17:53:50.288Z,19.05
2022-12-23T17:57:33.525Z,21.83
2022-12-23T18:01:25.293Z,18.95
2022-12-23T18:05:28.629Z,24.83
2022-12-23T18:09:10.374Z,26.60
2022-12-23T18:12:57.839Z,22.77
2022-12-23T18:16:39.698Z,30.95
2022-12-23T18:20:23.587Z,26.77
2022-12-23T18:24:05.784Z,28.88
2022-12-23T18:27:47.573Z,24.25
2022-12-23T18:31:29.864Z,20.02
2022-12-23T18:35:31.490Z,22.83
2022-12-23T18:39:13.190Z,20.15
2022-12-23T18:42:55.409Z,26.65
2022-12-23T18:46:37.156Z,24.08
2022-12-23T18:50:18.953Z,22.73
2022-12-23T18:54:00.660Z,23.50
2022-12-23T18:57:42.898Z,23.30
2022-12-23T19:01:24.729Z,25.10
2022-12-23T19:05:07.393Z,25.40
2022-12-23T19:08:49.170Z,19.53
2022-12-23T19:12:31.077Z,25.92
2022-12-23T19:16:15.248Z,21.15
2022-12-23T19:19:57.298Z,18.58
2022-12-23T19:23:42.721Z,26.65
2022-12-23T19:27:24.727Z,22.40
2022-12-23T19:31:14.744Z,20.65
2022-12-23T19:34:56.551Z,15.07
2022-12-23T19:38:38.419Z,12.85
2022-12-23T19:42:20.314Z,17.42
2022-12-23T19:46:05.128Z,18.45
2022-12-23T19:49:46.940Z,14.38
2022-12-23T19:53:29.330Z,17.77
2022-12-23T19:57:11.125Z,19.17
2022-12-23T20:00:53.096Z,19.38
2022-12-23T20:04:34.782Z,20.42
2022-12-23T20:08:16.715Z,12.32
2022-12-23T20:11:58.668Z,19.45
2022-12-23T20:15:40.409Z,21.85
2022-12-23T20:19:22.176Z,26.33
2022-12-23T20:23:03.907Z,16.27
2022-12-23T20:26:46.027Z,19.90
2022-12-23T20:30:27.817Z,18.52
2022-12-23T20:34:16.467Z,16.83
2022-12-23T20:37:58.188Z,17.05
2022-12-23T20:41:39.954Z,22.17
2022-12-23T20:45:21.674Z,18.90
2022-12-23T20:49:03.432Z,27.17
2022-12-23T20:52:45.194Z,22.85
2022-12-23T20:56:29.193Z,27.48
2022-12-23T21:00:12.040Z,23.20
2022-12-23T21:03:54.045Z,16.70
2022-12-23T21:07:35.806Z,21.88
2022-12-23T21:11:18.038Z,16.42
2022-12-23T21:14:59.723Z,25.70
2022-12-23T21:18:46.386Z,20.67
2022-12-23T21:22:28.100Z,23.55
2022-12-23T21:26:15.277Z,23.67
2022-12-23T21:29:57.065Z,16.85
2022-12-23T21:33:40.987Z,22.20
2022-12-23T21:37:22.763Z,19.00
2022-12-23T21:41:07.128Z,22.10
2022-12-23T21:44:48.909Z,14.63
2022-12-23T21:48:32.697Z,21.02
2022-12-23T21:52:14.499Z,25.45
2022-12-23T21:56:01.159Z,26.25
2022-12-23T21:59:43.041Z,20.23
2022-12-23T22:03:24.911Z,22.80
2022-12-23T22:07:06.689Z,24.25
2022-12-23T22:10:48.583Z,20.98
2022-12-23T22:14:30.322Z,17.13
2022-12-23T22:18:12.056Z,18.98
2022-12-23T22:21:53.801Z,25.88
2022-12-23T22:25:35.835Z,17.05
2022-12-23T22:29:17.763Z,24.17
2022-12-23T22:32:59.445Z,24.20
2022-12-23T22:36:41.628Z,14.93
2022-12-23T22:40:23.377Z,17.42
2022-12-23T22:44:05.393Z,18.17
2022-12-23T22:47:47.482Z,17.23
2022-12-23T22:51:31.299Z,18.42
2022-12-23T22:55:14.083Z,24.60
2022-12-23T22:58:56.282Z,16.63
2022-12-23T23:02:37.999Z,18.08
2022-12-23T23:06:19.726Z,17.80
2022-12-23T23:10:02.450Z,17.75
2022-12-23T23:13:44.773Z,20.05
2022-12-23T23:17:29.285Z,17.83
2022-12-23T23:21:14.077Z,13.05
2022-12-23T23:24:55.851Z,17.30
2022-12-23T23:28:39.959Z,15.00
2022-12-23T23:32:23.362Z,23.55
2022-12-23T23:36:06.724Z,15.63
2022-12-23T23:39:48.530Z,16.55
2022-12-23T23:43:30.324Z,20.92
2022-12-23T23:47:12.093Z,18.15
2022-12-23T23:51:01.864Z,18.33
2022-12-23T23:54:44.054Z,14.95
2022-12-23T23:58:25.776Z,16.35
